createdAt,value
2017-12-10T05:05:35.079Z,3.25
2017-12-10T05:08:09.706Z,4.37
2017-12-10T05:10:46.048Z,3.97
2017-12-10T05:13:23.679Z,3.00
2017-12-10T05:16:04.454Z,3.83
2017-12-10T05:18:43.360Z,3.12
2017-12-10T05:21:20.009Z,3.80
2017-12-10T05:24:06.061Z,3.72
2017-12-10T05:26:50.633Z,3.45
2017-12-10T05:29:23.392Z,3.12
2017-12-10T05:31:54.385Z,3.17
2017-12-10T05:37:12.896Z,3.75
2017-12-10T05:39:51.109Z,3.30
2017-12-10T05:42:24.364Z,3.75
2017-12-10T05:44:57.591Z,4.47
2017-12-10T05:47:37.408Z,3.55
2017-12-10T05:50:11.393Z,4.30
2017-12-10T05:52:45.709Z,4.00
2017-12-10T05:55:17.630Z,3.22
2017-12-10T05:57:50.140Z,2.97
2017-12-10T06:00:23.805Z,3.05
2017-12-10T06:03:05.387Z,3.05
2017-12-10T06:05:45.149Z,5.37
2017-12-10T06:08:15.814Z,3.00
2017-12-10T06:10:47.138Z,4.75
2017-12-10T06:13:31.484Z,3.12
2017-12-10T06:16:01.852Z,3.60
2017-12-10T06:18:34.015Z,3.22
2017-12-10T06:21:04.209Z,3.40
2017-12-10T06:23:34.983Z,3.65
2017-12-10T06:26:06.662Z,3.15
2017-12-10T06:28:34.922Z,3.85
2017-12-10T06:31:06.174Z,4.50
2017-12-10T06:33:36.902Z,3.62
2017-12-10T06:36:15.823Z,4.30
2017-12-10T06:38:47.293Z,3.35
2017-12-10T06:41:15.542Z,4.07
2017-12-10T06:43:43.777Z,4.47
2017-12-10T06:46:16.736Z,4.75
2017-12-10T06:48:44.922Z,4.47
2017-12-10T06:51:16.880Z,4.60
2017-12-10T06:53:46.820Z,3.90
2017-12-10T06:56:25.818Z,4.70
2017-12-10T06:58:56.860Z,4.55
2017-12-10T07:01:28.475Z,5.30
2017-12-10T07:03:58.953Z,4.50
2017-12-10T07:06:31.496Z,5.32
2017-12-10T07:09:03.101Z,5.10
2017-12-10T07:11:36.261Z,4.90
2017-12-10T07:14:17.143Z,5.68
2017-12-10T07:16:54.839Z,5.40
2017-12-10T07:19:26.659Z,5.60
2017-12-10T07:21:59.196Z,5.15
2017-12-10T07:24:41.396Z,5.45
2017-12-10T07:27:13.741Z,7.20
2017-12-10T07:29:46.138Z,5.50
2017-12-10T07:32:17.588Z,6.28
2017-12-10T07:34:48.083Z,5.90
2017-12-10T07:37:20.767Z,7.07
2017-12-10T07:39:49.709Z,7.95
2017-12-10T07:42:30.571Z,7.37
2017-12-10T07:45:02.350Z,5.70
2017-12-10T07:47:36.221Z,6.10
2017-12-10T07:50:04.438Z,5.12
2017-12-10T07:52:34.555Z,6.15
2017-12-10T07:55:04.448Z,7.68
2017-12-10T07:57:45.744Z,6.55
2017-12-10T08:00:19.701Z,6.35
2017-12-10T08:02:50.212Z,7.45
2017-12-10T08:05:23.076Z,7.50
2017-12-10T08:07:52.887Z,7.43
2017-12-10T08:10:28.343Z,6.93
2017-12-10T08:15:33.855Z,7.80
2017-12-10T08:18:11.621Z,8.00
2017-12-10T08:20:43.177Z,8.02
2017-12-10T08:23:24.759Z,7.97
2017-12-10T08:26:08.604Z,7.43
2017-12-10T08:28:53.644Z,7.35
2017-12-10T08:31:24.058Z,11.23
2017-12-10T08:34:04.905Z,8.52
2017-12-10T08:36:33.069Z,8.30
2017-12-10T08:39:10.811Z,7.03
2017-12-10T08:45:04.095Z,6.80
2017-12-10T08:47:42.943Z,7.82
2017-12-10T08:56:18.828Z,6.93
2017-12-10T08:59:01.498Z,6.10
2017-12-10T09:01:53.416Z,7.05
2017-12-10T09:10:08.950Z,6.37
2017-12-10T09:13:10.605Z,7.35
2017-12-10T09:15:58.072Z,6.15
2017-12-10T09:18:38.642Z,6.25
2017-12-10T09:21:16.322Z,7.53
2017-12-10T09:24:05.970Z,6.57
2017-12-10T09:26:44.078Z,7.10
2017-12-10T09:29:32.818Z,6.75
2017-12-10T09:32:12.870Z,7.05
2017-12-10T09:37:57.104Z,7.47
2017-12-10T09:40:48.723Z,7.05
2017-12-10T09:49:01.409Z,5.65
2017-12-10T09:51:32.939Z,6.60
2017-12-10T09:57:17.256Z,6.75
2017-12-10T09:59:53.694Z,5.55
2017-12-10T10:02:29.931Z,6.05
2017-12-10T10:05:05.606Z,6.05
2017-12-10T10:10:23.355Z,5.87
2017-12-10T10:13:06.786Z,6.85
2017-12-10T10:15:40.790Z,6.97
2017-12-10T10:18:11.689Z,6.12
2017-12-10T10:20:53.251Z,6.50
2017-12-10T10:26:09.092Z,5.93
2017-12-10T10:28:41.695Z,6.00
2017-12-10T10:31:23.592Z,6.20
2017-12-10T10:33:58.127Z,6.53
2017-12-10T10:39:09.846Z,5.82
2017-12-10T10:41:47.478Z,5.93
2017-12-10T10:44:26.302Z,6.68
2017-12-10T10:47:16.352Z,6.82
2017-12-10T10:50:04.254Z,7.22
2017-12-10T10:52:49.234Z,6.20
2017-12-10T10:55:48.249Z,5.97
2017-12-10T10:58:24.597Z,6.07
2017-12-10T11:01:14.202Z,6.15
2017-12-10T11:04:00.487Z,5.35
2017-12-10T11:06:37.256Z,5.93
2017-12-10T11:09:11.570Z,5.28
2017-12-10T11:11:54.031Z,4.87
2017-12-10T11:14:40.605Z,10.45
2017-12-10T11:17:33.015Z,4.90
2017-12-10T11:20:32.274Z,5.12
2017-12-10T11:23:09.286Z,6.40
2017-12-10T11:25:41.329Z,5.32
2017-12-10T11:28:20.679Z,5.20
2017-12-10T11:30:56.250Z,5.60
2017-12-10T11:33:44.211Z,5.40
2017-12-10T11:36:17.163Z,5.18
2017-12-10T11:39:01.520Z,5.30
2017-12-10T11:41:34.021Z,4.25
2017-12-10T11:44:20.574Z,3.95
2017-12-10T11:47:00.899Z,4.10
2017-12-10T11:49:39.961Z,4.90
2017-12-10T11:52:12.844Z,4.40
2017-12-10T11:54:59.490Z,3.95
2017-12-10T11:57:44.330Z,3.92
2017-12-10T12:00:17.926Z,3.87
2017-12-10T12:02:50.253Z,4.20
2017-12-10T12:05:26.619Z,4.60
2017-12-10T12:08:03.336Z,3.58
2017-12-10T12:10:42.214Z,4.37
2017-12-10T12:13:15.310Z,5.10
2017-12-10T12:15:55.395Z,4.95
2017-12-10T12:18:27.214Z,4.85
2017-12-10T12:21:04.649Z,7.28
2017-12-10T12:23:38.963Z,6.70
2017-12-10T12:34:26.768Z,4.18
2017-12-10T12:37:03.660Z,3.65
2017-12-10T12:39:42.405Z,4.30
2017-12-10T12:45:18.594Z,4.68
2017-12-10T12:47:53.114Z,5.30
2017-12-10T12:50:36.643Z,5.10
2017-12-10T12:53:32.889Z,5.37
2017-12-10T13:01:40.472Z,5.75
2017-12-10T13:04:29.350Z,5.00
2017-12-10T13:09:54.996Z,4.97
2017-12-10T13:15:44.439Z,5.57
2017-12-10T13:18:35.489Z,5.07
2017-12-10T13:21:27.893Z,5.43
2017-12-10T13:24:03.028Z,6.12
2017-12-10T13:26:46.018Z,5.32
2017-12-10T13:29:28.815Z,5.60
2017-12-10T13:35:11.606Z,5.82
2017-12-10T13:53:26.136Z,7.18
2017-12-10T13:56:08.790Z,6.53
2017-12-10T14:04:59.489Z,8.32
2017-12-10T14:07:29.891Z,6.70
2017-12-10T14:09:58.242Z,8.32
2017-12-10T14:12:26.379Z,8.60
2017-12-10T14:14:56.145Z,8.05
2017-12-10T14:17:24.335Z,7.45
2017-12-10T14:19:57.386Z,9.05
2017-12-10T14:22:25.562Z,8.55
2017-12-10T14:24:53.749Z,6.82
2017-12-10T14:27:22.638Z,7.43
2017-12-10T14:29:51.019Z,7.57
2017-12-10T14:32:20.389Z,7.57
2017-12-10T14:35:02.210Z,9.55
2017-12-10T14:37:30.309Z,8.70
2017-12-10T14:39:58.424Z,7.70
2017-12-10T14:42:28.833Z,8.60
2017-12-10T14:44:56.977Z,9.75
2017-12-10T14:47:25.217Z,8.65
2017-12-10T14:49:54.557Z,8.02
2017-12-10T14:52:22.867Z,8.30
2017-12-10T14:54:51.114Z,7.78
2017-12-10T14:57:21.200Z,6.43
2017-12-10T14:59:50.660Z,6.87
2017-12-10T15:02:20.832Z,7.62
2017-12-10T15:04:52.370Z,8.18
2017-12-10T15:07:20.681Z,22.05
2017-12-10T15:09:49.775Z,14.35
2017-12-10T15:12:19.544Z,9.07
2017-12-10T15:14:58.834Z,8.30
2017-12-10T15:17:27.977Z,6.97
2017-12-10T15:19:57.599Z,6.07
2017-12-10T15:22:26.970Z,6.70
2017-12-10T15:24:56.096Z,6.45
2017-12-10T15:27:24.368Z,8.20
2017-12-10T15:29:52.686Z,7.30
2017-12-10T15:32:21.191Z,9.10
2017-12-10T15:34:49.440Z,6.22
2017-12-10T15:37:19.004Z,5.62
2017-12-10T15:39:48.309Z,6.20
2017-12-10T15:42:16.776Z,6.18
2017-12-10T15:44:45.471Z,7.12
2017-12-10T15:47:14.447Z,6.93
2017-12-10T15:49:42.788Z,6.80
2017-12-10T15:52:11.267Z,16.40
2017-12-10T15:54:43.187Z,7.62
2017-12-10T15:57:12.482Z,6.03
2017-12-10T15:59:42.002Z,6.62
2017-12-10T16:02:12.453Z,6.95
2017-12-10T16:04:41.935Z,7.95
2017-12-10T16:07:21.266Z,7.70
2017-12-10T16:09:49.877Z,7.87
2017-12-10T16:12:28.258Z,7.43
2017-12-10T16:14:57.027Z,7.40
2017-12-10T16:17:35.351Z,7.97
2017-12-10T16:20:03.832Z,6.95
2017-12-10T16:22:33.239Z,6.18
2017-12-10T16:25:02.631Z,7.87
2017-12-10T16:27:32.271Z,7.25
2017-12-10T16:30:03.872Z,8.63
2017-12-10T16:32:33.787Z,9.00
2017-12-10T16:35:03.954Z,7.62
2017-12-10T16:37:33.928Z,9.07
2017-12-10T16:40:02.466Z,10.50
2017-12-10T16:42:31.057Z,7.10
2017-12-10T16:44:59.592Z,8.57
2017-12-10T16:47:28.771Z,8.88
2017-12-10T16:50:00.849Z,9.98
2017-12-10T16:52:30.149Z,10.77
2017-12-10T16:54:58.495Z,12.95
2017-12-10T16:57:27.047Z,13.20
2017-12-10T16:59:55.366Z,11.20
2017-12-10T17:02:24.337Z,9.80
2017-12-10T17:04:52.556Z,11.38
2017-12-10T17:07:20.927Z,10.82
2017-12-10T17:09:49.246Z,10.25
2017-12-10T17:12:17.551Z,37.35
2017-12-10T17:14:45.740Z,26.95
2017-12-10T17:17:13.938Z,21.55
2017-12-10T17:19:42.332Z,14.85
2017-12-10T17:22:11.403Z,14.57
2017-12-10T17:24:39.647Z,15.27
2017-12-10T17:27:07.846Z,15.45
2017-12-10T17:29:36.077Z,17.05
2017-12-10T17:32:04.336Z,13.98
2017-12-10T17:34:33.429Z,15.80
2017-12-10T17:37:02.912Z,17.62
2017-12-10T17:39:31.362Z,21.00
2017-12-10T17:41:59.573Z,15.55
2017-12-10T17:44:27.933Z,19.02
2017-12-10T17:46:56.132Z,17.50
2017-12-10T17:49:25.182Z,14.07
2017-12-10T17:51:53.367Z,14.07
2017-12-10T17:54:21.705Z,14.90
2017-12-10T17:56:50.258Z,15.77
2017-12-10T17:59:19.406Z,15.38
2017-12-10T18:01:48.616Z,16.40
2017-12-10T18:04:18.949Z,14.30
2017-12-10T18:06:47.358Z,15.32
2017-12-10T18:09:15.919Z,15.45
2017-12-10T18:11:44.173Z,15.70
2017-12-10T18:14:12.353Z,15.23
2017-12-10T18:16:40.603Z,15.05
2017-12-10T18:19:08.847Z,16.00
2017-12-10T18:21:37.127Z,16.75
2017-12-10T18:24:05.625Z,19.98
2017-12-10T18:26:34.666Z,22.40
2017-12-10T18:29:02.968Z,31.35
2017-12-10T18:31:31.250Z,27.90
2017-12-10T18:34:00.309Z,19.85
2017-12-10T18:36:28.550Z,24.83
2017-12-10T18:38:56.842Z,21.23
2017-12-10T18:41:25.333Z,25.45
2017-12-10T18:43:53.711Z,24.08
2017-12-10T18:46:22.013Z,21.90
2017-12-10T18:48:50.324Z,22.85
2017-12-10T18:51:19.339Z,21.17
2017-12-10T18:53:47.626Z,14.95
2017-12-10T18:56:15.839Z,14.35
2017-12-10T18:58:54.031Z,13.50
2017-12-10T19:01:22.250Z,13.90
2017-12-10T19:03:50.403Z,12.88
2017-12-10T19:06:18.620Z,20.95
2017-12-10T19:08:47.484Z,19.92
2017-12-10T19:11:16.865Z,19.12
2017-12-10T19:13:45.369Z,17.37
2017-12-10T19:16:14.506Z,21.48
2017-12-10T19:18:45.179Z,18.30
2017-12-10T19:21:13.838Z,22.50
2017-12-10T19:23:43.991Z,15.90
2017-12-10T19:26:12.161Z,15.95
2017-12-10T19:28:40.722Z,16.37
2017-12-10T19:31:09.010Z,15.43
2017-12-10T19:33:37.153Z,16.95
2017-12-10T19:36:16.184Z,21.98
2017-12-10T19:38:44.324Z,26.30
2017-12-10T19:41:12.497Z,23.30
2017-12-10T19:43:40.676Z,20.17
2017-12-10T19:46:08.918Z,18.58
2017-12-10T19:48:37.116Z,19.48
2017-12-10T19:51:05.410Z,20.98
2017-12-10T19:53:34.577Z,20.62
2017-12-10T19:56:02.920Z,17.73
2017-12-10T19:58:31.202Z,18.80
2017-12-10T20:00:59.442Z,19.08
2017-12-10T20:03:28.845Z,18.27
2017-12-10T20:05:57.100Z,20.80
2017-12-10T20:08:26.284Z,18.23
2017-12-10T20:10:54.646Z,20.95
2017-12-10T20:13:22.938Z,19.42
2017-12-10T20:15:51.422Z,18.52
2017-12-10T20:18:19.657Z,19.05
2017-12-10T20:20:47.938Z,31.77
2017-12-10T20:23:16.207Z,24.95
2017-12-10T20:25:44.420Z,25.75
2017-12-10T20:28:13.506Z,27.27
2017-12-10T20:30:41.747Z,20.88
2017-12-10T20:33:14.448Z,30.37
2017-12-10T20:35:45.496Z,17.70
2017-12-10T20:38:15.144Z,15.80
2017-12-10T20:40:43.544Z,14.02
2017-12-10T20:43:13.569Z,11.40
2017-12-10T20:45:43.119Z,9.32
2017-12-10T20:48:11.919Z,10.20
2017-12-10T20:50:40.922Z,8.02
2017-12-10T20:53:10.022Z,12.37
2017-12-10T20:55:38.361Z,9.93
2017-12-10T20:58:07.525Z,11.15
2017-12-10T21:00:38.784Z,8.65
2017-12-10T21:03:07.584Z,9.90
2017-12-10T21:05:36.025Z,8.90
2017-12-10T21:08:04.466Z,10.63
2017-12-10T21:10:33.467Z,10.25
2017-12-10T21:13:02.839Z,9.88
2017-12-10T21:15:31.881Z,10.82
2017-12-10T21:18:00.072Z,10.45
2017-12-10T21:20:28.239Z,13.43
2017-12-10T21:22:56.395Z,13.55
2017-12-10T21:25:24.563Z,13.60
2017-12-10T21:27:52.792Z,13.43
2017-12-10T21:30:20.882Z,12.60
2017-12-10T21:32:49.797Z,11.18
2017-12-10T21:35:18.078Z,13.43
2017-12-10T21:37:46.272Z,12.70
2017-12-10T21:40:14.517Z,12.43
2017-12-10T21:42:42.611Z,12.23
2017-12-10T21:45:10.780Z,11.45
2017-12-10T21:47:38.940Z,9.65
2017-12-10T21:50:07.932Z,11.63
2017-12-10T21:52:36.125Z,8.38
2017-12-10T21:55:04.319Z,7.57
2017-12-10T21:57:32.526Z,9.52
2017-12-10T22:00:00.717Z,7.45
2017-12-10T22:02:28.898Z,14.82
2017-12-10T22:04:57.863Z,5.72
2017-12-10T22:07:26.149Z,5.37
2017-12-10T22:09:54.633Z,5.43
2017-12-10T22:12:24.092Z,5.22
2017-12-10T22:14:52.261Z,4.75
2017-12-10T22:17:21.233Z,4.50
2017-12-10T22:19:50.165Z,4.55
2017-12-10T22:22:18.464Z,4.55
2017-12-10T22:24:46.746Z,4.93
2017-12-10T22:27:15.027Z,6.87
2017-12-10T22:29:44.465Z,4.37
2017-12-10T22:32:12.687Z,6.35
2017-12-10T22:34:40.861Z,6.22
2017-12-10T22:37:09.118Z,6.53
2017-12-10T22:39:37.322Z,5.90
2017-12-10T22:42:05.531Z,3.80
2017-12-10T22:44:33.780Z,3.70
2017-12-10T22:47:02.446Z,3.28
2017-12-10T22:49:30.786Z,3.65
2017-12-10T22:51:59.205Z,3.70
2017-12-10T22:54:29.097Z,3.25
2017-12-10T22:56:57.478Z,3.37
2017-12-10T22:59:26.061Z,2.65
2017-12-10T23:01:54.235Z,3.03
2017-12-10T23:04:22.454Z,3.05
2017-12-10T23:06:50.710Z,2.70
2017-12-10T23:09:18.965Z,3.08
2017-12-10T23:11:47.128Z,2.53
2017-12-10T23:14:16.155Z,5.70
2017-12-10T23:16:44.394Z,9.40
2017-12-10T23:19:13.355Z,7.55
2017-12-10T23:21:41.642Z,3.58
2017-12-10T23:24:10.645Z,3.10
2017-12-10T23:26:38.870Z,2.92
2017-12-10T23:29:07.100Z,6.87
2017-12-10T23:31:45.279Z,12.40
2017-12-10T23:34:16.710Z,7.93
2017-12-10T23:36:45.619Z,6.70
2017-12-10T23:39:14.734Z,6.65
2017-12-10T23:41:53.003Z,4.85
2017-12-10T23:44:21.255Z,3.15
2017-12-10T23:46:49.494Z,3.10
2017-12-10T23:49:18.562Z,2.60
2017-12-10T23:51:56.726Z,2.55
2017-12-10T23:54:24.987Z,3.00
2017-12-10T23:56:53.241Z,2.90
2017-12-10T23:59:21.379Z,2.80
